Time;durP1;ratioP1;P1;durP2;ratioP2;P2;SDS_P1;SDS_P2;PMS_P1;PMS_P2;Temp;Humidity;BMP_temperature;BMP_pressure;BME280_temperature;BME280_humidity;BME280_pressure;Samples;Min_cycle;Max_cycle;Signal;HPM_P1;HPM_P2
2021/10/30 00:01:54;;;;;;;29.07;22.03;;;;;;;10.55;76.72;100395.66;5035277;28;20183;-72
2021/10/30 00:04:20;;;;;;;30.17;21.80;;;;;;;10.55;76.84;100409.00;5087637;22;20278;-72
2021/10/30 00:06:45;;;;;;;28.23;22.10;;;;;;;10.29;77.57;100397.19;5095522;28;20181;-71
2021/10/30 00:09:10;;;;;;;27.80;22.03;;;;;;;10.38;77.04;100401.13;5095473;28;20635;-71
2021/10/30 00:11:36;;;;;;;27.83;20.90;;;;;;;10.51;76.32;100404.81;5094654;28;20216;-71
2021/10/30 00:14:01;;;;;;;31.73;21.87;;;;;;;10.30;77.89;100407.78;5094806;28;20196;-71
2021/10/30 00:16:27;;;;;;;31.10;22.13;;;;;;;10.30;77.58;100399.78;5077284;28;20264;-71
2021/10/30 00:18:52;;;;;;;28.40;21.10;;;;;;;10.07;78.14;100410.91;5095403;28;20189;-71
2021/10/30 00:21:17;;;;;;;31.13;22.10;;;;;;;10.61;76.52;100419.31;5095697;28;20178;-71
2021/10/30 00:23:43;;;;;;;33.83;21.90;;;;;;;10.23;77.41;100411.75;5095230;28;20189;-72
2021/10/30 00:26:08;;;;;;;29.43;22.00;;;;;;;10.54;77.39;100416.16;5077119;28;20572;-71
2021/10/30 00:28:33;;;;;;;28.93;20.37;;;;;;;10.22;77.62;100419.84;5095328;28;20195;-71
2021/10/30 00:30:59;;;;;;;30.83;21.40;;;;;;;10.33;76.95;100415.59;5076823;28;20673;-71
2021/10/30 00:33:24;;;;;;;31.40;21.00;;;;;;;10.49;76.99;100406.72;5095134;28;20169;-71
2021/10/30 00:35:49;;;;;;;29.90;21.87;;;;;;;10.53;77.14;100414.44;5094972;28;20178;-71
2021/10/30 00:38:14;;;;;;;29.43;21.23;;;;;;;10.02;78.10;100400.47;5102247;28;20223;-71
2021/10/30 00:40:40;;;;;;;30.03;22.10;;;;;;;10.08;78.19;100411.75;5099818;28;20167;-70
2021/10/30 00:43:05;;;;;;;29.77;21.57;;;;;;;10.14;78.21;100425.59;5078839;28;20182;-71
2021/10/30 00:45:31;;;;;;;29.97;22.43;;;;;;;10.29;78.13;100424.72;5078117;28;20571;-71
2021/10/30 00:47:57;;;;;;;38.03;22.97;;;;;;;10.31;77.99;100432.63;5078067;28;20524;-72
2021/10/30 00:50:22;;;;;;;34.40;23.03;;;;;;;9.97;79.04;100421.19;5078251;28;20200;-71
2021/10/30 00:52:49;;;;;;;32.13;22.47;;;;;;;10.09;78.72;100411.66;5095615;28;20223;-71
2021/10/30 00:55:14;;;;;;;32.17;22.67;;;;;;;9.96;78.45;100407.97;5076562;28;20209;-72
2021/10/30 00:57:41;;;;;;;28.30;22.13;;;;;;;10.48;77.72;100426.34;5077006;28;20173;-72
2021/10/30 01:00:08;;;;;;;30.37;23.20;;;;;;;10.10;79.14;100421.38;5076687;28;20223;-72
2021/10/30 01:02:33;;;;;;;32.97;21.87;;;;;;;10.24;77.47;100412.63;5076844;28;20192;-71
2021/10/30 01:04:59;;;;;;;30.43;22.43;;;;;;;10.31;77.76;100414.81;5076191;28;20623;-71
2021/10/30 01:07:25;;;;;;;37.57;23.17;;;;;;;9.86;78.85;100415.63;5076358;28;20169;-71
2021/10/30 01:09:52;;;;;;;27.80;20.87;;;;;;;10.00;78.86;100422.84;5076149;28;20236;-71
2021/10/30 01:12:17;;;;;;;28.53;22.13;;;;;;;9.83;79.23;100420.28;5094838;28;20184;-72
2021/10/30 01:14:43;;;;;;;33.10;22.43;;;;;;;10.24;77.77;100426.81;5075814;28;20283;-70
2021/10/30 01:17:08;;;;;;;33.47;22.47;;;;;;;10.29;77.67;100424.72;5076082;28;20172;-71
2021/10/30 01:19:34;;;;;;;32.57;21.47;;;;;;;9.96;78.64;100426.63;5076079;28;20647;-70
2021/10/30 01:22:00;;;;;;;34.30;22.53;;;;;;;9.97;78.42;100421.19;5094238;28;20573;-71
2021/10/30 01:24:26;;;;;;;30.27;21.67;;;;;;;10.18;77.79;100429.78;5093649;28;20204;-72
2021/10/30 01:26:52;;;;;;;30.47;22.10;;;;;;;10.24;78.08;100429.47;5076154;28;20173;-71
2021/10/30 01:29:17;;;;;;;34.57;22.30;;;;;;;10.11;78.77;100427.56;5059112;28;20174;-71
2021/10/30 01:31:43;;;;;;;34.70;23.20;;;;;;;10.13;78.23;100431.00;5093815;28;20169;-72
2021/10/30 01:34:09;;;;;;;32.40;22.57;;;;;;;10.18;78.77;100429.78;5075793;28;20619;-71
2021/10/30 01:36:35;;;;;;;31.27;22.20;;;;;;;10.09;78.16;100427.66;5075774;28;20264;-71
2021/10/30 01:39:03;;;;;;;30.60;22.37;;;;;;;9.89;78.87;100425.25;5075905;28;20647;-71
2021/10/30 01:41:29;;;;;;;33.70;22.40;;;;;;;10.24;78.36;100426.81;5059044;28;20539;-72
2021/10/30 01:43:57;;;;;;;27.60;20.50;;;;;;;9.94;78.64;100409.84;5076116;28;20194;-72
2021/10/30 01:46:24;;;;;;;31.77;21.43;;;;;;;9.91;78.74;100415.38;5076525;28;20199;-72
2021/10/30 01:48:49;;;;;;;29.40;21.77;;;;;;;9.86;79.23;100428.09;5093825;28;20162;-71
2021/10/30 01:51:16;;;;;;;32.10;22.27;;;;;;;9.77;79.21;100420.63;5075630;28;20209;-72
2021/10/30 01:53:42;;;;;;;30.50;22.40;;;;;;;9.59;79.72;100414.50;5075908;28;20222;-71
2021/10/30 01:56:07;;;;;;;29.90;22.57;;;;;;;10.05;79.43;100423.47;5075872;28;20319;-72
2021/10/30 01:58:33;;;;;;;30.00;21.73;;;;;;;10.03;78.98;100428.00;5075494;28;20173;-71
2021/10/30 02:00:59;;;;;;;30.03;21.93;;;;;;;10.06;78.04;100416.31;5093531;28;20589;-71
2021/10/30 02:03:24;;;;;;;29.07;21.67;;;;;;;10.01;78.46;100419.22;5058601;28;20203;-72
2021/10/30 02:05:51;;;;;;;34.43;22.37;;;;;;;10.17;78.37;100425.41;5075723;28;20656;-72
2021/10/30 02:08:17;;;;;;;28.07;21.60;;;;;;;10.46;77.59;100422.91;5077134;28;20563;-72
2021/10/30 02:10:42;;;;;;;30.03;21.57;;;;;;;10.26;77.77;100414.25;5075625;28;20208;-71
2021/10/30 02:13:07;;;;;;;33.27;22.40;;;;;;;10.07;77.97;100412.69;5093213;28;20175;-72
2021/10/30 02:15:33;;;;;;;29.57;22.30;;;;;;;10.18;77.63;100416.47;5093366;28;20192;-72
2021/10/30 02:17:58;;;;;;;28.37;20.53;;;;;;;10.23;78.03;100414.41;5093389;28;20187;-71
2021/10/30 02:20:23;;;;;;;28.60;20.83;;;;;;;10.37;77.45;100420.75;5093331;28;20172;-71
2021/10/30 02:22:52;;;;;;;32.70;22.40;;;;;;;10.41;77.56;100416.97;5093724;28;20633;-72
2021/10/30 02:25:18;;;;;;;29.30;21.87;;;;;;;10.69;76.79;100416.19;5075426;28;20205;-72
2021/10/30 02:27:43;;;;;;;28.67;20.27;;;;;;;10.61;76.54;100417.50;5075182;28;20169;-71
2021/10/30 02:30:09;;;;;;;31.17;21.60;;;;;;;10.63;76.32;100415.59;5058436;28;20221;-71
2021/10/30 02:32:34;;;;;;;31.23;21.93;;;;;;;10.34;77.14;100414.66;5094608;28;20178;-72
2021/10/30 02:34:59;;;;;;;30.83;21.00;;;;;;;10.41;77.45;100414.31;5078132;28;20182;-72
2021/10/30 02:37:25;;;;;;;31.33;22.23;;;;;;;10.11;77.33;100407.09;5098447;28;20174;-72
2021/10/30 02:39:50;;;;;;;27.07;21.17;;;;;;;10.22;77.08;100414.50;5098074;28;20174;-71
2021/10/30 02:42:15;;;;;;;29.43;21.20;;;;;;;10.29;77.23;100426.53;5080566;28;20185;-71
2021/10/30 02:44:41;;;;;;;27.33;20.80;;;;;;;10.57;76.89;100431.97;5080889;28;20695;-71
2021/10/30 02:47:06;;;;;;;26.00;20.27;;;;;;;10.24;77.35;100424.13;5098376;28;20174;-72
2021/10/30 02:49:32;;;;;;;28.33;20.27;;;;;;;10.43;77.07;100428.41;5079976;28;20686;-71
2021/10/30 02:51:58;;;;;;;32.33;21.07;;;;;;;10.29;77.51;100431.88;5080661;28;20169;-71
2021/10/30 02:54:24;;;;;;;29.70;21.83;;;;;;;10.50;77.05;100435.09;5081505;28;20537;-71
2021/10/30 02:56:49;;;;;;;28.10;20.20;;;;;;;10.45;77.26;100429.19;5099654;28;20177;-70
2021/10/30 02:59:14;;;;;;;28.17;21.17;;;;;;;10.33;76.96;100420.94;5081030;28;20305;-71
2021/10/30 03:01:40;;;;;;;28.43;20.27;;;;;;;10.47;77.05;100428.16;5100115;28;20231;-72
2021/10/30 03:04:05;;;;;;;30.23;21.00;;;;;;;10.48;77.15;100429.00;5081491;28;20213;-71
2021/10/30 03:06:31;;;;;;;26.50;20.33;;;;;;;10.52;76.83;100428.72;5099881;28;20721;-71
2021/10/30 03:08:57;;;;;;;31.37;20.60;;;;;;;10.54;77.01;100428.63;5101819;28;20620;-71
2021/10/30 03:11:22;;;;;;;31.20;21.60;;;;;;;10.51;77.05;100420.81;5081887;28;20224;-70
2021/10/30 03:13:48;;;;;;;30.40;20.10;;;;;;;10.72;75.99;100430.19;5098123;28;20213;-71
2021/10/30 03:16:13;;;;;;;26.97;20.57;;;;;;;10.43;76.99;100420.41;5099013;28;20177;-71
2021/10/30 03:18:39;;;;;;;32.53;21.57;;;;;;;10.43;76.95;100418.59;5098660;28;20639;-71
2021/10/30 03:21:04;;;;;;;26.23;19.67;;;;;;;10.46;76.41;100429.09;5079571;28;20174;-71
2021/10/30 03:23:30;;;;;;;25.50;20.03;;;;;;;10.64;76.03;100443.16;5080444;28;20596;-71
2021/10/30 03:25:55;;;;;;;27.50;20.83;;;;;;;10.51;76.47;100434.16;5079792;28;20192;-71
2021/10/30 03:28:20;;;;;;;27.93;20.80;;;;;;;10.41;77.05;100435.66;5063063;28;20185;-71
2021/10/30 03:30:46;;;;;;;27.63;20.83;;;;;;;10.32;76.97;100437.88;5098323;28;20194;-71
2021/10/30 03:33:11;;;;;;;29.63;22.30;;;;;;;10.48;77.16;100445.00;5079942;28;20225;-71
2021/10/30 03:35:37;;;;;;;27.17;21.27;;;;;;;10.11;77.68;100435.56;5097615;28;20804;-71
2021/10/30 03:38:03;;;;;;;29.13;20.50;;;;;;;10.57;76.69;100452.47;5079727;28;20166;-70
2021/10/30 03:40:28;;;;;;;29.43;21.17;;;;;;;10.22;77.64;100447.38;5078899;28;20165;-71
2021/10/30 03:42:53;;;;;;;29.30;21.23;;;;;;;10.29;77.28;100448.72;5097318;28;20539;-71
2021/10/30 03:45:19;;;;;;;29.03;21.23;;;;;;;10.28;77.15;100439.00;5098205;28;20219;-71
2021/10/30 03:47:44;;;;;;;37.67;22.37;;;;;;;10.22;77.24;100449.19;5080414;28;20192;-71
2021/10/30 03:50:09;;;;;;;28.20;21.63;;;;;;;10.46;76.60;100439.78;5096221;28;20192;-72
2021/10/30 03:52:35;;;;;;;34.33;21.33;;;;;;;10.01;78.36;100448.56;5078100;28;20189;-71
2021/10/30 03:55:00;;;;;;;29.90;22.80;;;;;;;10.04;78.53;100448.41;5078060;28;20618;-71
2021/10/30 03:57:25;;;;;;;29.57;21.03;;;;;;;10.25;78.25;100454.34;5078357;28;20180;-71
2021/10/30 03:59:51;;;;;;;28.87;22.70;;;;;;;10.12;78.01;100446.16;5078474;28;20168;-70
2021/10/30 04:02:16;;;;;;;27.50;20.77;;;;;;;10.20;77.75;100449.28;5096070;28;20182;-72
2021/10/30 04:04:42;;;;;;;27.87;20.53;;;;;;;10.08;77.83;100441.94;5095874;28;20687;-72
2021/10/30 04:07:08;;;;;;;29.60;20.57;;;;;;;10.21;77.95;100447.47;5078120;28;20641;-72
2021/10/30 04:09:34;;;;;;;29.80;21.83;;;;;;;10.14;77.18;100456.72;5077722;28;20571;-71
2021/10/30 04:11:59;;;;;;;27.77;21.57;;;;;;;10.12;77.95;100448.81;5077695;28;20170;-70
2021/10/30 04:14:24;;;;;;;32.33;22.07;;;;;;;10.16;77.13;100454.84;5095901;28;20277;-71
2021/10/30 04:16:50;;;;;;;30.67;19.93;;;;;;;10.20;76.76;100449.28;5077607;28;20178;-70
2021/10/30 04:19:15;;;;;;;32.83;21.80;;;;;;;9.98;77.14;100446.91;5077533;28;20262;-71
2021/10/30 04:21:41;;;;;;;27.73;21.40;;;;;;;10.13;77.72;100455.88;5077723;28;20306;-70
2021/10/30 04:24:07;;;;;;;26.60;20.77;;;;;;;10.36;76.30;100451.03;5077470;28;20743;-70
2021/10/30 04:26:33;;;;;;;27.40;20.87;;;;;;;10.25;76.68;100447.19;5095923;28;20200;-72
2021/10/30 04:28:59;;;;;;;29.80;22.50;;;;;;;9.97;77.71;100439.88;5095855;28;20173;-71
2021/10/30 04:31:26;;;;;;;32.67;22.83;;;;;;;9.84;78.54;100441.50;5077483;28;20722;-72
2021/10/30 04:33:54;;;;;;;30.47;22.60;;;;;;;10.09;77.61;100434.81;5095716;28;20232;-71
2021/10/30 04:36:19;;;;;;;30.77;22.53;;;;;;;9.92;78.16;100433.94;5095483;28;20172;-71
2021/10/30 04:38:46;;;;;;;31.23;21.13;;;;;;;10.03;78.20;100439.53;5078536;28;20260;-70
2021/10/30 04:41:12;;;;;;;30.37;22.33;;;;;;;9.79;77.90;100437.38;5077467;28;20657;-71
2021/10/30 04:43:37;;;;;;;32.87;23.43;;;;;;;9.66;78.58;100448.75;5077167;28;20193;-71
2021/10/30 04:46:02;;;;;;;29.50;22.57;;;;;;;9.82;78.76;100459.41;5094968;28;20167;-70
2021/10/30 04:48:28;;;;;;;31.80;23.60;;;;;;;9.85;78.04;100455.69;5095145;28;20180;-72
2021/10/30 04:50:53;;;;;;;31.13;21.87;;;;;;;9.84;78.46;100459.31;5095687;28;20277;-72
2021/10/30 04:53:18;;;;;;;32.07;22.60;;;;;;;9.67;78.53;100453.13;5095181;28;20175;-72
2021/10/30 04:55:44;;;;;;;35.80;24.50;;;;;;;9.52;79.04;100451.28;5094857;28;20201;-71
2021/10/30 04:58:09;;;;;;;33.77;23.97;;;;;;;9.55;79.46;100439.59;5094372;28;20247;-72
2021/10/30 05:00:34;;;;;;;36.97;25.57;;;;;;;9.48;79.77;100444.41;5076715;28;20171;-71
2021/10/30 05:03:00;;;;;;;32.93;24.27;;;;;;;9.37;80.11;100449.47;5094790;28;20174;-71
2021/10/30 05:05:25;;;;;;;33.17;24.27;;;;;;;9.51;79.33;100448.69;5094527;28;20243;-72
2021/10/30 05:07:50;;;;;;;33.27;24.47;;;;;;;9.14;80.49;100431.19;5094608;28;20170;-71
2021/10/30 05:10:16;;;;;;;35.20;26.40;;;;;;;9.34;79.93;100425.66;5094466;28;20195;-71
2021/10/30 05:12:41;;;;;;;35.93;26.10;;;;;;;9.39;79.81;100432.44;5076960;28;20715;-72
2021/10/30 05:15:07;;;;;;;33.97;24.80;;;;;;;9.44;79.45;100434.88;5094459;28;20186;-71
2021/10/30 05:17:32;;;;;;;32.53;24.47;;;;;;;9.50;80.12;100445.19;5094569;28;20166;-71
2021/10/30 05:19:57;;;;;;;35.00;26.00;;;;;;;9.62;79.07;100441.84;5094768;28;20167;-70
2021/10/30 05:22:23;;;;;;;34.20;25.33;;;;;;;9.58;79.17;100434.09;5076365;28;20631;-71
2021/10/30 05:24:48;;;;;;;36.70;25.90;;;;;;;9.36;79.98;100426.44;5059659;28;20206;-71
2021/10/30 05:27:15;;;;;;;37.90;25.80;;;;;;;9.33;80.28;100424.81;5094326;28;20177;-71
2021/10/30 05:29:40;;;;;;;36.87;26.23;;;;;;;9.51;79.10;100430.06;5077315;28;20194;-72
2021/10/30 05:32:06;;;;;;;38.53;27.40;;;;;;;9.38;79.31;100433.41;5077064;28;20183;-72
2021/10/30 05:34:31;;;;;;;37.50;25.97;;;;;;;9.50;78.46;100431.00;5094511;28;20198;-71
2021/10/30 05:36:57;;;;;;;36.77;25.20;;;;;;;9.57;79.08;100433.25;5095019;28;20647;-71
2021/10/30 05:39:23;;;;;;;36.83;24.90;;;;;;;9.61;78.49;100426.78;5094526;28;20178;-71
2021/10/30 05:41:49;;;;;;;35.50;25.87;;;;;;;9.42;78.78;100423.44;5094318;28;20166;-72
2021/10/30 05:44:14;;;;;;;34.63;25.20;;;;;;;9.59;78.59;100431.34;5059635;28;20209;-71
2021/10/30 05:46:40;;;;;;;42.53;25.70;;;;;;;9.67;78.38;100433.63;5077068;28;20190;-72
2021/10/30 05:49:07;;;;;;;33.80;24.83;;;;;;;9.54;79.40;100428.06;5095213;28;20666;-71
2021/10/30 05:51:33;;;;;;;38.17;25.70;;;;;;;9.45;78.54;100423.25;5094815;28;20311;-71
2021/10/30 05:53:59;;;;;;;35.63;25.17;;;;;;;9.66;78.62;100422.09;5078384;28;20197;-71
2021/10/30 05:56:24;;;;;;;39.30;26.47;;;;;;;9.36;78.73;100418.44;5096946;28;20170;-71
2021/10/30 05:58:49;;;;;;;37.47;25.90;;;;;;;9.27;79.24;100418.91;5094294;28;20174;-72
2021/10/30 06:01:15;;;;;;;35.57;26.23;;;;;;;9.40;79.08;100426.19;5075865;28;20163;-72
2021/10/30 06:06:10;;;;;;;36.57;26.27;;;;;;;9.20;80.24;100434.38;5117237;22;20560;-71
2021/10/30 06:08:35;;;;;;;34.83;25.57;;;;;;;9.26;79.73;100431.38;5093798;28;20181;-72
2021/10/30 06:11:01;;;;;;;36.97;25.50;;;;;;;9.30;79.17;100419.66;5076041;28;20197;-72
2021/10/30 06:13:26;;;;;;;33.50;26.13;;;;;;;9.43;79.12;100438.47;5095335;28;20235;-73
2021/10/30 06:15:52;;;;;;;34.17;24.53;;;;;;;9.29;78.42;100433.00;5075113;28;20202;-72
2021/10/30 06:18:17;;;;;;;37.87;25.33;;;;;;;9.38;78.85;100427.22;5074862;28;20185;-72
2021/10/30 06:20:43;;;;;;;33.93;25.63;;;;;;;9.50;78.04;100431.00;5092904;28;20167;-73
2021/10/30 06:23:08;;;;;;;38.17;25.60;;;;;;;9.44;78.86;100436.66;5075420;28;20620;-72
2021/10/30 06:25:34;;;;;;;38.23;25.97;;;;;;;9.55;78.58;100429.78;5074840;28;20240;-72
2021/10/30 06:27:59;;;;;;;35.83;25.03;;;;;;;9.63;77.85;100427.56;5093409;28;20714;-73
2021/10/30 06:30:25;;;;;;;36.60;24.80;;;;;;;9.69;77.94;100429.91;5074684;28;20194;-71
2021/10/30 06:32:52;;;;;;;38.00;26.83;;;;;;;9.37;78.78;100421.03;5092789;28;20189;-72
2021/10/30 06:35:17;;;;;;;39.47;26.27;;;;;;;9.63;78.45;100430.22;5093026;28;20194;-72
2021/10/30 06:37:42;;;;;;;38.93;26.87;;;;;;;9.51;78.44;100432.72;5057802;28;20620;-72
2021/10/30 06:40:13;;;;;;;36.17;26.17;;;;;;;9.64;78.35;100434.63;5057847;28;20183;-72
2021/10/30 06:42:39;;;;;;;36.27;25.27;;;;;;;9.56;78.51;100442.19;5075645;28;20185;-73
2021/10/30 06:45:05;;;;;;;35.23;25.47;;;;;;;9.33;79.12;100432.78;5074892;28;20675;-73
2021/10/30 06:47:31;;;;;;;36.83;25.50;;;;;;;9.71;77.99;100445.81;5074722;28;20725;-73
2021/10/30 06:49:58;;;;;;;36.00;25.67;;;;;;;9.84;78.36;100456.66;5092948;28;20190;-72
2021/10/30 06:52:24;;;;;;;38.73;24.53;;;;;;;9.65;77.66;100444.31;5092792;28;20220;-72
2021/10/30 06:54:49;;;;;;;34.60;24.57;;;;;;;9.88;77.14;100447.53;5092706;28;20559;-72
2021/10/30 06:57:15;;;;;;;34.43;24.97;;;;;;;9.63;77.37;100448.88;5075690;28;20186;-72
2021/10/30 06:59:40;;;;;;;35.63;25.60;;;;;;;9.66;77.75;100454.06;5062390;28;20171;-72
2021/10/30 07:02:08;;;;;;;37.13;26.67;;;;;;;9.32;79.11;100451.50;5081535;28;20304;-73
2021/10/30 07:04:34;;;;;;;38.53;25.60;;;;;;;9.45;79.40;100465.88;5098788;28;20219;-73
2021/10/30 07:06:59;;;;;;;37.13;25.73;;;;;;;9.56;78.61;100473.28;5097016;28;20179;-72
2021/10/30 07:09:24;;;;;;;38.33;25.90;;;;;;;9.79;77.52;100466.72;5097437;28;20725;-73
2021/10/30 07:11:50;;;;;;;37.43;25.90;;;;;;;9.84;78.05;100473.50;5096064;28;20170;-71
2021/10/30 07:14:16;;;;;;;39.57;25.73;;;;;;;9.99;76.69;100464.63;5092885;28;20683;-71
2021/10/30 07:16:42;;;;;;;35.83;25.93;;;;;;;9.50;78.65;100458.50;5074966;28;20174;-72
2021/10/30 07:19:07;;;;;;;36.47;26.50;;;;;;;9.63;78.52;100462.19;5092961;28;20178;-71
2021/10/30 07:21:32;;;;;;;38.03;26.70;;;;;;;9.88;77.89;100477.72;5094336;28;20187;-72
2021/10/30 07:24:00;;;;;;;37.50;25.17;;;;;;;10.40;75.74;100485.44;5079088;28;20178;-72
2021/10/30 07:26:25;;;;;;;36.50;25.67;;;;;;;10.43;75.28;100485.31;5082480;28;20531;-72
2021/10/30 07:28:51;;;;;;;33.93;25.77;;;;;;;10.63;74.63;100484.13;5083630;28;20175;-72
2021/10/30 07:31:16;;;;;;;38.20;25.47;;;;;;;10.74;74.17;100489.69;5100750;28;20206;-72
2021/10/30 07:33:41;;;;;;;35.00;25.53;;;;;;;10.30;74.58;100469.13;5096858;28;20555;-74
2021/10/30 07:36:07;;;;;;;35.60;25.97;;;;;;;10.81;74.37;100483.06;5078122;28;20197;-72
2021/10/30 07:38:33;;;;;;;35.30;24.93;;;;;;;10.79;73.62;100479.63;5078074;28;20185;-71
2021/10/30 07:40:58;;;;;;;34.40;24.90;;;;;;;10.88;73.28;100471.06;5096394;28;20256;-72
2021/10/30 07:43:23;;;;;;;35.33;24.57;;;;;;;11.03;73.07;100465.75;5096345;28;20208;-72
2021/10/30 07:45:49;;;;;;;35.73;24.90;;;;;;;10.91;72.81;100468.22;5095814;28;20223;-71
2021/10/30 07:48:14;;;;;;;33.60;24.80;;;;;;;11.13;72.88;100466.88;5078628;28;20229;-72
2021/10/30 07:50:39;;;;;;;38.60;26.07;;;;;;;11.20;72.64;100473.59;5078590;28;20285;-71
2021/10/30 07:53:05;;;;;;;34.97;25.10;;;;;;;11.41;71.91;100469.59;5080853;28;20266;-72
2021/10/30 07:55:30;;;;;;;36.87;26.10;;;;;;;11.46;71.52;100466.63;5079831;28;20198;-72
2021/10/30 07:57:56;;;;;;;35.83;25.13;;;;;;;11.95;70.47;100476.97;5078837;28;20539;-72
2021/10/30 08:00:22;;;;;;;36.57;26.20;;;;;;;11.69;71.38;100459.84;5097164;28;20170;-73
2021/10/30 08:02:48;;;;;;;52.57;37.93;;;;;;;11.66;71.87;100449.34;5096064;28;20661;-72
2021/10/30 08:05:17;;;;;;;81.13;53.47;;;;;;;11.49;71.36;100437.91;5062611;28;20573;-73
2021/10/30 08:07:43;;;;;;;46.13;33.13;;;;;;;11.88;71.57;100453.25;5079743;28;20251;-73
2021/10/30 08:10:09;;;;;;;39.90;29.07;;;;;;;12.17;70.75;100446.03;5096450;28;20536;-72
2021/10/30 08:12:35;;;;;;;36.00;25.43;;;;;;;12.28;69.45;100431.09;5095373;28;20674;-73
2021/10/30 08:15:00;;;;;;;46.00;31.07;;;;;;;12.33;69.75;100435.19;5095475;28;20198;-70
2021/10/30 08:17:26;;;;;;;55.23;36.77;;;;;;;12.34;69.71;100428.88;5095462;28;20193;-71
2021/10/30 08:19:51;;;;;;;43.57;30.67;;;;;;;12.34;68.78;100423.50;5077458;28;20513;-69
2021/10/30 08:22:17;;;;;;;36.90;27.13;;;;;;;12.17;69.84;100423.75;5077172;28;20184;-72
2021/10/30 08:24:45;;;;;;;33.17;25.50;;;;;;;12.72;67.92;100430.78;5076976;28;20679;-71
2021/10/30 08:27:10;;;;;;;37.20;25.27;;;;;;;12.80;68.25;100429.28;5077250;28;20189;-72
2021/10/30 08:29:36;;;;;;;36.30;27.17;;;;;;;12.82;68.54;100424.69;5095449;28;20174;-71
2021/10/30 08:32:01;;;;;;;38.60;28.17;;;;;;;13.39;66.33;100432.34;5077163;28;20574;-71
2021/10/30 08:34:28;;;;;;;32.60;24.43;;;;;;;12.70;67.76;100411.28;5094037;28;20186;-72
2021/10/30 08:36:53;;;;;;;32.50;23.83;;;;;;;12.72;68.00;100404.88;5076744;28;20225;-71
2021/10/30 08:39:20;;;;;;;45.40;30.63;;;;;;;13.30;67.09;100426.75;5077025;28;20170;-72
2021/10/30 08:41:45;;;;;;;41.47;29.40;;;;;;;13.28;66.83;100418.84;5094932;28;20169;-72
2021/10/30 08:44:10;;;;;;;38.70;25.20;;;;;;;14.01;64.41;100418.91;5095618;28;20280;-72
2021/10/30 08:46:36;;;;;;;35.67;26.30;;;;;;;13.88;65.18;100411.88;5095493;28;20194;-72
2021/10/30 08:49:02;;;;;;;35.07;25.70;;;;;;;13.86;64.93;100411.97;5095117;28;20513;-72
2021/10/30 08:51:29;;;;;;;35.97;25.13;;;;;;;14.36;64.81;100413.59;5095059;28;20202;-72
2021/10/30 08:53:55;;;;;;;35.73;25.03;;;;;;;14.33;64.23;100402.22;5095034;28;20170;-72
2021/10/30 08:56:22;;;;;;;39.57;27.27;;;;;;;14.19;64.31;100389.00;5094762;28;20657;-72
2021/10/30 08:58:47;;;;;;;40.67;28.13;;;;;;;14.23;63.83;100391.34;5076950;28;20166;-72
2021/10/30 09:01:13;;;;;;;37.17;24.83;;;;;;;14.54;63.29;100383.69;5077591;28;20498;-74
2021/10/30 09:03:38;;;;;;;36.13;24.30;;;;;;;14.93;62.73;100391.34;5077400;28;20190;-73
2021/10/30 09:06:04;;;;;;;33.17;21.37;;;;;;;15.36;61.07;100393.34;5094683;28;20202;-72
2021/10/30 09:08:30;;;;;;;30.53;22.60;;;;;;;14.89;62.14;100383.66;5076893;28;20177;-73
2021/10/30 09:11:08;;;;;;;36.27;21.17;;;;;;;14.63;62.84;100370.41;5060135;28;20265;-71
2021/10/30 09:13:34;;;;;;;31.07;21.20;;;;;;;14.53;62.98;100364.03;5095133;28;20177;-73
2021/10/30 09:16:01;;;;;;;29.60;20.07;;;;;;;14.45;62.64;100361.03;5059489;28;20194;-71
2021/10/30 09:18:29;;;;;;;31.13;20.33;;;;;;;14.65;62.83;100362.22;5076454;28;20162;-74
2021/10/30 09:21:04;;;;;;;27.33;20.23;;;;;;;14.77;62.37;100363.94;5076667;28;20176;-73
2021/10/30 09:23:31;;;;;;;28.53;19.93;;;;;;;14.29;63.79;100355.97;5094187;28;20493;-73
2021/10/30 09:25:59;;;;;;;28.40;21.30;;;;;;;14.53;62.53;100355.13;5075926;28;20190;-71
2021/10/30 09:28:27;;;;;;;28.53;19.87;;;;;;;14.43;63.03;100349.56;5076424;28;20219;-71
2021/10/30 09:31:01;;;;;;;27.20;19.33;;;;;;;14.76;62.37;100364.06;5094857;28;20243;-73
2021/10/30 09:33:29;;;;;;;28.73;19.33;;;;;;;14.40;62.93;100333.66;5076107;28;20177;-72
2021/10/30 09:35:55;;;;;;;27.07;20.10;;;;;;;14.82;62.10;100356.38;5076115;28;20758;-73
2021/10/30 09:38:34;;;;;;;23.83;18.90;;;;;;;15.07;61.86;100357.16;5076801;28;20173;-73
2021/10/30 09:41:18;;;;;;;24.07;17.33;;;;;;;14.83;62.07;100350.03;5076599;28;20569;-74
2021/10/30 09:44:03;;;;;;;30.73;19.07;;;;;;;15.30;61.15;100364.25;5076319;28;20166;-73
2021/10/30 09:46:56;;;;;;;29.80;18.40;;;;;;;15.98;59.75;100356.94;5094884;28;20194;-74
2021/10/30 09:49:27;;;;;;;25.07;17.40;;;;;;;16.55;58.38;100357.44;5076804;28;20155;-72
2021/10/30 09:52:09;;;;;;;23.70;17.87;;;;;;;16.59;59.24;100358.03;5076054;28;20162;-73
2021/10/30 09:54:40;;;;;;;24.60;19.03;;;;;;;16.63;58.81;100358.63;5075931;28;20190;-73
2021/10/30 09:57:07;;;;;;;25.30;17.87;;;;;;;16.74;57.77;100348.69;5077407;28;20178;-72
2021/10/30 09:59:34;;;;;;;22.07;16.47;;;;;;;17.44;57.86;100372.16;5076764;28;20216;-73
2021/10/30 10:01:59;;;;;;;22.00;16.10;;;;;;;16.55;57.79;100338.59;5076146;28;20174;-72
2021/10/30 10:04:26;;;;;;;28.77;19.60;;;;;;;16.74;58.78;100354.09;5075579;28;20247;-72
2021/10/30 10:06:52;;;;;;;28.70;19.10;;;;;;;17.64;57.52;100373.09;5076383;28;20162;-72
2021/10/30 10:09:17;;;;;;;27.40;19.83;;;;;;;17.11;58.94;100353.59;5075822;28;20181;-72
2021/10/30 10:11:48;;;;;;;27.10;19.57;;;;;;;17.55;57.93;100357.72;5093386;28;20728;-73
2021/10/30 10:14:14;;;;;;;26.23;16.37;;;;;;;16.52;58.21;100324.53;5075226;28;20217;-72
2021/10/30 10:16:42;;;;;;;21.50;16.47;;;;;;;17.53;57.60;100362.41;5093680;28;20170;-73
2021/10/30 10:19:07;;;;;;;26.43;20.57;;;;;;;18.07;56.91;100358.44;5075377;28;20171;-71
2021/10/30 10:21:34;;;;;;;31.37;19.13;;;;;;;17.10;57.74;100319.53;5093227;28;20667;-73
2021/10/30 10:24:03;;;;;;;20.90;15.53;;;;;;;16.87;57.94;100329.59;5093121;28;20162;-72
2021/10/30 10:26:50;;;;;;;22.50;16.27;;;;;;;17.57;56.94;100342.25;5075556;28;20297;-71
2021/10/30 10:29:43;;;;;;;24.87;15.53;;;;;;;17.77;56.79;100335.94;5093348;28;20639;-73
2021/10/30 10:32:18;;;;;;;22.60;15.43;;;;;;;17.48;56.51;100313.41;5075119;28;20209;-72
2021/10/30 10:34:45;;;;;;;18.73;14.37;;;;;;;17.93;56.15;100318.34;5093542;28;20225;-72
2021/10/30 10:37:10;;;;;;;19.37;15.27;;;;;;;17.47;56.70;100311.72;5075283;28;20196;-73
2021/10/30 10:39:36;;;;;;;21.23;14.23;;;;;;;18.60;55.23;100328.28;5093308;28;20648;-72
2021/10/30 10:42:03;;;;;;;19.93;13.93;;;;;;;20.25;51.41;100330.09;5075698;28;20227;-73
2021/10/30 10:44:28;;;;;;;18.50;13.70;;;;;;;21.64;47.58;100293.88;5075547;28;20198;-72
2021/10/30 10:46:56;;;;;;;17.17;13.23;;;;;;;22.65;46.39;100297.19;5076091;28;20859;-73
2021/10/30 10:49:57;;;;;;;15.80;12.60;;;;;;;23.98;44.08;100233.72;5075488;28;20174;-73
2021/10/30 10:52:25;;;;;;;17.30;13.67;;;;;;;26.20;41.41;100253.66;5075519;28;20190;-73
2021/10/30 10:54:58;;;;;;;17.77;13.57;;;;;;;24.36;43.55;100206.50;5059000;28;20194;-72
2021/10/30 10:57:24;;;;;;;19.97;13.57;;;;;;;24.58;42.69;100212.94;5098778;28;20186;-73
2021/10/30 11:00:08;;;;;;;14.30;12.10;;;;;;;26.24;41.30;100249.47;5064892;28;20201;-73
2021/10/30 11:02:36;;;;;;;16.63;12.73;;;;;;;26.63;40.78;100250.88;5080607;28;20178;-73
2021/10/30 11:05:07;;;;;;;16.37;12.27;;;;;;;28.19;38.81;100234.50;5078722;28;20675;-72
2021/10/30 11:07:33;;;;;;;17.63;12.80;;;;;;;27.42;39.06;100180.97;5096869;28;20620;-73
2021/10/30 11:10:06;;;;;;;16.93;12.57;;;;;;;26.92;39.47;100179.47;5078550;28;20198;-72
2021/10/30 11:12:32;;;;;;;19.77;13.70;;;;;;;26.93;39.11;100172.94;5096804;28;20182;-73